sensor_id;sensor_type;location;lat;lon;timestamp;P1;durP1;ratioP1;P2;durP2;ratioP2
68247;SDS011;55064;49.636;12.164;2023-07-13T00:00:40;8.87;;;5.20;;
68247;SDS011;55064;49.636;12.164;2023-07-13T00:03:08;10.75;;;5.80;;
68247;SDS011;55064;49.636;12.164;2023-07-13T00:05:38;10.07;;;5.70;;
68247;SDS011;55064;49.636;12.164;2023-07-13T00:08:03;9.03;;;5.43;;
68247;SDS011;55064;49.636;12.164;2023-07-13T00:10:42;10.43;;;5.65;;
68247;SDS011;55064;49.636;12.164;2023-07-13T00:13:08;9.77;;;5.43;;
68247;SDS011;55064;49.636;12.164;2023-07-13T00:15:34;9.50;;;5.30;;
68247;SDS011;55064;49.636;12.164;2023-07-13T00:18:00;10.35;;;5.30;;
68247;SDS011;55064;49.636;12.164;2023-07-13T00:20:27;10.57;;;5.20;;
68247;SDS011;55064;49.636;12.164;2023-07-13T00:22:52;8.52;;;5.00;;
68247;SDS011;55064;49.636;12.164;2023-07-13T00:25:20;8.93;;;4.70;;
68247;SDS011;55064;49.636;12.164;2023-07-13T00:27:46;10.10;;;4.80;;
68247;SDS011;55064;49.636;12.164;2023-07-13T00:30:14;8.60;;;5.03;;
68247;SDS011;55064;49.636;12.164;2023-07-13T00:32:42;10.52;;;5.03;;
68247;SDS011;55064;49.636;12.164;2023-07-13T00:35:13;8.18;;;4.65;;
68247;SDS011;55064;49.636;12.164;2023-07-13T00:37:44;9.07;;;4.70;;
68247;SDS011;55064;49.636;12.164;2023-07-13T00:40:10;9.50;;;4.65;;
68247;SDS011;55064;49.636;12.164;2023-07-13T00:42:39;10.35;;;4.70;;
68247;SDS011;55064;49.636;12.164;2023-07-13T00:47:41;9.70;;;4.60;;
68247;SDS011;55064;49.636;12.164;2023-07-13T00:50:08;8.23;;;4.13;;
68247;SDS011;55064;49.636;12.164;2023-07-13T00:52:38;8.02;;;4.22;;
68247;SDS011;55064;49.636;12.164;2023-07-13T00:55:06;7.40;;;4.10;;
68247;SDS011;55064;49.636;12.164;2023-07-13T00:57:34;7.15;;;4.28;;
68247;SDS011;55064;49.636;12.164;2023-07-13T01:00:00;7.63;;;4.03;;
68247;SDS011;55064;49.636;12.164;2023-07-13T01:02:31;7.65;;;3.80;;
68247;SDS011;55064;49.636;12.164;2023-07-13T01:04:57;8.63;;;4.10;;
68247;SDS011;55064;49.636;12.164;2023-07-13T01:07:22;7.47;;;3.70;;
68247;SDS011;55064;49.636;12.164;2023-07-13T01:09:51;7.70;;;3.10;;
68247;SDS011;55064;49.636;12.164;2023-07-13T01:12:20;5.50;;;2.72;;
68247;SDS011;55064;49.636;12.164;2023-07-13T01:14:46;7.20;;;2.87;;
68247;SDS011;55064;49.636;12.164;2023-07-13T01:17:12;6.68;;;2.97;;
68247;SDS011;55064;49.636;12.164;2023-07-13T01:19:41;6.78;;;3.03;;
68247;SDS011;55064;49.636;12.164;2023-07-13T01:22:12;7.13;;;3.15;;
68247;SDS011;55064;49.636;12.164;2023-07-13T01:24:41;6.18;;;3.13;;
68247;SDS011;55064;49.636;12.164;2023-07-13T01:27:12;7.17;;;3.07;;
68247;SDS011;55064;49.636;12.164;2023-07-13T01:29:39;6.60;;;2.72;;
68247;SDS011;55064;49.636;12.164;2023-07-13T01:32:15;6.32;;;3.03;;
68247;SDS011;55064;49.636;12.164;2023-07-13T01:34:48;7.15;;;2.85;;
68247;SDS011;55064;49.636;12.164;2023-07-13T01:37:20;8.82;;;3.60;;
68247;SDS011;55064;49.636;12.164;2023-07-13T01:39:46;5.83;;;3.13;;
68247;SDS011;55064;49.636;12.164;2023-07-13T01:42:13;7.57;;;3.13;;
68247;SDS011;55064;49.636;12.164;2023-07-13T01:44:39;8.00;;;3.00;;
68247;SDS011;55064;49.636;12.164;2023-07-13T01:47:06;8.43;;;3.60;;
68247;SDS011;55064;49.636;12.164;2023-07-13T01:49:36;5.95;;;2.90;;
68247;SDS011;55064;49.636;12.164;2023-07-13T01:52:04;6.43;;;3.33;;
68247;SDS011;55064;49.636;12.164;2023-07-13T01:54:37;6.50;;;3.40;;
68247;SDS011;55064;49.636;12.164;2023-07-13T01:57:02;7.03;;;3.20;;
68247;SDS011;55064;49.636;12.164;2023-07-13T01:59:28;6.45;;;3.28;;
68247;SDS011;55064;49.636;12.164;2023-07-13T02:01:54;5.70;;;2.80;;
68247;SDS011;55064;49.636;12.164;2023-07-13T02:04:19;9.67;;;3.17;;
68247;SDS011;55064;49.636;12.164;2023-07-13T02:06:47;8.38;;;3.00;;
68247;SDS011;55064;49.636;12.164;2023-07-13T02:09:12;7.40;;;2.80;;
68247;SDS011;55064;49.636;12.164;2023-07-13T02:11:37;6.50;;;2.97;;
68247;SDS011;55064;49.636;12.164;2023-07-13T02:14:03;5.68;;;2.65;;
68247;SDS011;55064;49.636;12.164;2023-07-13T02:16:28;6.20;;;2.80;;
68247;SDS011;55064;49.636;12.164;2023-07-13T02:18:56;7.43;;;2.80;;
68247;SDS011;55064;49.636;12.164;2023-07-13T02:21:26;7.73;;;2.83;;
68247;SDS011;55064;49.636;12.164;2023-07-13T02:23:52;6.97;;;2.80;;
68247;SDS011;55064;49.636;12.164;2023-07-13T02:26:19;6.93;;;2.85;;
68247;SDS011;55064;49.636;12.164;2023-07-13T02:28:45;5.40;;;2.70;;
68247;SDS011;55064;49.636;12.164;2023-07-13T02:31:15;7.07;;;2.90;;
68247;SDS011;55064;49.636;12.164;2023-07-13T02:33:41;7.55;;;3.30;;
68247;SDS011;55064;49.636;12.164;2023-07-13T02:36:08;7.60;;;3.63;;
68247;SDS011;55064;49.636;12.164;2023-07-13T02:38:37;7.83;;;3.40;;
68247;SDS011;55064;49.636;12.164;2023-07-13T02:41:05;6.47;;;3.15;;
68247;SDS011;55064;49.636;12.164;2023-07-13T02:43:32;6.82;;;3.08;;
68247;SDS011;55064;49.636;12.164;2023-07-13T02:46:01;7.10;;;2.60;;
68247;SDS011;55064;49.636;12.164;2023-07-13T02:48:32;6.55;;;2.55;;
68247;SDS011;55064;49.636;12.164;2023-07-13T02:50:58;6.03;;;2.78;;
68247;SDS011;55064;49.636;12.164;2023-07-13T02:53:26;6.57;;;2.55;;
68247;SDS011;55064;49.636;12.164;2023-07-13T02:55:53;7.15;;;3.15;;
68247;SDS011;55064;49.636;12.164;2023-07-13T02:58:20;8.30;;;2.90;;
68247;SDS011;55064;49.636;12.164;2023-07-13T03:00:49;8.68;;;2.63;;
68247;SDS011;55064;49.636;12.164;2023-07-13T03:03:15;5.60;;;2.58;;
68247;SDS011;55064;49.636;12.164;2023-07-13T03:05:43;5.40;;;2.60;;
68247;SDS011;55064;49.636;12.164;2023-07-13T03:08:10;5.45;;;2.60;;
68247;SDS011;55064;49.636;12.164;2023-07-13T03:10:36;7.63;;;2.72;;
68247;SDS011;55064;49.636;12.164;2023-07-13T03:13:04;5.82;;;2.60;;
68247;SDS011;55064;49.636;12.164;2023-07-13T03:15:30;6.30;;;2.67;;
68247;SDS011;55064;49.636;12.164;2023-07-13T03:17:57;5.68;;;2.38;;
68247;SDS011;55064;49.636;12.164;2023-07-13T03:20:24;6.57;;;2.70;;
68247;SDS011;55064;49.636;12.164;2023-07-13T03:22:49;8.68;;;2.88;;
68247;SDS011;55064;49.636;12.164;2023-07-13T03:25:14;6.20;;;2.97;;
68247;SDS011;55064;49.636;12.164;2023-07-13T03:27:40;7.10;;;2.40;;
68247;SDS011;55064;49.636;12.164;2023-07-13T03:30:05;6.00;;;2.60;;
68247;SDS011;55064;49.636;12.164;2023-07-13T03:32:32;6.10;;;2.92;;
68247;SDS011;55064;49.636;12.164;2023-07-13T03:34:58;6.40;;;3.03;;
68247;SDS011;55064;49.636;12.164;2023-07-13T03:37:23;6.78;;;2.88;;
68247;SDS011;55064;49.636;12.164;2023-07-13T03:39:49;6.00;;;2.40;;
68247;SDS011;55064;49.636;12.164;2023-07-13T03:42:15;5.70;;;2.85;;
68247;SDS011;55064;49.636;12.164;2023-07-13T03:44:40;6.67;;;3.10;;
68247;SDS011;55064;49.636;12.164;2023-07-13T03:47:08;5.65;;;2.67;;
68247;SDS011;55064;49.636;12.164;2023-07-13T03:49:34;6.05;;;2.58;;
68247;SDS011;55064;49.636;12.164;2023-07-13T03:52:00;6.60;;;2.70;;
68247;SDS011;55064;49.636;12.164;2023-07-13T03:54:25;6.35;;;2.78;;
68247;SDS011;55064;49.636;12.164;2023-07-13T03:56:51;5.67;;;2.43;;
68247;SDS011;55064;49.636;12.164;2023-07-13T03:59:17;5.80;;;2.63;;
68247;SDS011;55064;49.636;12.164;2023-07-13T04:01:44;7.05;;;3.38;;
68247;SDS011;55064;49.636;12.164;2023-07-13T04:04:09;7.18;;;3.55;;
68247;SDS011;55064;49.636;12.164;2023-07-13T04:06:38;6.20;;;3.40;;
68247;SDS011;55064;49.636;12.164;2023-07-13T04:09:06;7.27;;;3.47;;
68247;SDS011;55064;49.636;12.164;2023-07-13T04:11:36;7.32;;;3.42;;
68247;SDS011;55064;49.636;12.164;2023-07-13T04:14:03;7.30;;;3.40;;
68247;SDS011;55064;49.636;12.164;2023-07-13T04:16:33;6.53;;;3.13;;
68247;SDS011;55064;49.636;12.164;2023-07-13T04:19:04;7.22;;;2.70;;
68247;SDS011;55064;49.636;12.164;2023-07-13T04:21:31;7.90;;;2.50;;
68247;SDS011;55064;49.636;12.164;2023-07-13T04:23:57;7.07;;;3.03;;
68247;SDS011;55064;49.636;12.164;2023-07-13T04:26:22;5.90;;;2.57;;
68247;SDS011;55064;49.636;12.164;2023-07-13T04:28:49;8.33;;;2.93;;
68247;SDS011;55064;49.636;12.164;2023-07-13T04:31:15;9.50;;;2.90;;
68247;SDS011;55064;49.636;12.164;2023-07-13T04:33:41;8.25;;;2.95;;
68247;SDS011;55064;49.636;12.164;2023-07-13T04:36:08;5.77;;;2.83;;
68247;SDS011;55064;49.636;12.164;2023-07-13T04:38:36;7.10;;;3.10;;
68247;SDS011;55064;49.636;12.164;2023-07-13T04:41:03;6.32;;;2.88;;
68247;SDS011;55064;49.636;12.164;2023-07-13T04:43:31;4.75;;;2.20;;
68247;SDS011;55064;49.636;12.164;2023-07-13T04:46:03;5.70;;;2.50;;
68247;SDS011;55064;49.636;12.164;2023-07-13T04:48:34;6.87;;;2.40;;
68247;SDS011;55064;49.636;12.164;2023-07-13T04:51:00;5.05;;;2.13;;
68247;SDS011;55064;49.636;12.164;2023-07-13T04:53:27;4.88;;;2.17;;
68247;SDS011;55064;49.636;12.164;2023-07-13T04:55:53;6.20;;;2.50;;
68247;SDS011;55064;49.636;12.164;2023-07-13T04:58:19;6.13;;;2.30;;
68247;SDS011;55064;49.636;12.164;2023-07-13T05:00:44;5.10;;;2.27;;
68247;SDS011;55064;49.636;12.164;2023-07-13T05:03:09;5.57;;;2.10;;
68247;SDS011;55064;49.636;12.164;2023-07-13T05:05:36;6.23;;;1.90;;
68247;SDS011;55064;49.636;12.164;2023-07-13T05:14:27;5.68;;;2.10;;
68247;SDS011;55064;49.636;12.164;2023-07-13T05:16:53;4.70;;;1.98;;
68247;SDS011;55064;49.636;12.164;2023-07-13T05:19:19;5.53;;;1.93;;
68247;SDS011;55064;49.636;12.164;2023-07-13T05:25:08;5.25;;;2.17;;
68247;SDS011;55064;49.636;12.164;2023-07-13T05:27:45;7.30;;;2.17;;
68247;SDS011;55064;49.636;12.164;2023-07-13T05:30:12;5.07;;;2.20;;
68247;SDS011;55064;49.636;12.164;2023-07-13T05:32:39;8.52;;;2.00;;
68247;SDS011;55064;49.636;12.164;2023-07-13T05:35:06;5.70;;;1.88;;
68247;SDS011;55064;49.636;12.164;2023-07-13T05:37:31;4.50;;;2.10;;
68247;SDS011;55064;49.636;12.164;2023-07-13T05:40:00;5.57;;;2.33;;
68247;SDS011;55064;49.636;12.164;2023-07-13T05:42:29;6.45;;;2.30;;
68247;SDS011;55064;49.636;12.164;2023-07-13T05:44:57;6.22;;;1.95;;
68247;SDS011;55064;49.636;12.164;2023-07-13T05:47:23;5.15;;;2.20;;
68247;SDS011;55064;49.636;12.164;2023-07-13T05:49:49;6.50;;;2.13;;
68247;SDS011;55064;49.636;12.164;2023-07-13T05:52:17;6.00;;;2.20;;
68247;SDS011;55064;49.636;12.164;2023-07-13T05:54:42;4.63;;;1.90;;
68247;SDS011;55064;49.636;12.164;2023-07-13T05:57:08;5.97;;;2.10;;
68247;SDS011;55064;49.636;12.164;2023-07-13T05:59:33;4.80;;;2.17;;
68247;SDS011;55064;49.636;12.164;2023-07-13T06:01:58;5.20;;;2.30;;
68247;SDS011;55064;49.636;12.164;2023-07-13T06:04:24;5.50;;;2.60;;
68247;SDS011;55064;49.636;12.164;2023-07-13T06:06:49;5.03;;;2.00;;
68247;SDS011;55064;49.636;12.164;2023-07-13T06:09:17;5.57;;;2.22;;
68247;SDS011;55064;49.636;12.164;2023-07-13T06:11:43;5.40;;;2.10;;
68247;SDS011;55064;49.636;12.164;2023-07-13T06:14:09;4.67;;;2.10;;
68247;SDS011;55064;49.636;12.164;2023-07-13T06:16:39;5.05;;;2.08;;
68247;SDS011;55064;49.636;12.164;2023-07-13T06:19:06;5.90;;;2.10;;
68247;SDS011;55064;49.636;12.164;2023-07-13T06:21:31;5.32;;;1.92;;
68247;SDS011;55064;49.636;12.164;2023-07-13T06:23:56;5.53;;;2.10;;
68247;SDS011;55064;49.636;12.164;2023-07-13T06:26:26;5.50;;;2.07;;
68247;SDS011;55064;49.636;12.164;2023-07-13T06:28:52;5.85;;;2.10;;
68247;SDS011;55064;49.636;12.164;2023-07-13T06:31:19;6.10;;;2.00;;
68247;SDS011;55064;49.636;12.164;2023-07-13T06:33:44;5.53;;;2.10;;
68247;SDS011;55064;49.636;12.164;2023-07-13T06:36:12;5.47;;;2.50;;
68247;SDS011;55064;49.636;12.164;2023-07-13T06:38:38;4.20;;;1.98;;
68247;SDS011;55064;49.636;12.164;2023-07-13T06:41:04;6.47;;;2.40;;
68247;SDS011;55064;49.636;12.164;2023-07-13T06:43:30;5.03;;;2.13;;
68247;SDS011;55064;49.636;12.164;2023-07-13T06:45:56;8.13;;;2.47;;
68247;SDS011;55064;49.636;12.164;2023-07-13T06:48:22;7.65;;;2.30;;
68247;SDS011;55064;49.636;12.164;2023-07-13T06:50:48;6.88;;;2.00;;
68247;SDS011;55064;49.636;12.164;2023-07-13T06:53:18;7.65;;;2.58;;
68247;SDS011;55064;49.636;12.164;2023-07-13T06:55:45;5.77;;;2.10;;
68247;SDS011;55064;49.636;12.164;2023-07-13T06:58:10;5.18;;;2.50;;
68247;SDS011;55064;49.636;12.164;2023-07-13T07:00:40;6.00;;;2.20;;
68247;SDS011;55064;49.636;12.164;2023-07-13T07:03:05;5.83;;;2.20;;
68247;SDS011;55064;49.636;12.164;2023-07-13T07:05:31;5.07;;;2.13;;
68247;SDS011;55064;49.636;12.164;2023-07-13T07:07:56;5.90;;;2.10;;
68247;SDS011;55064;49.636;12.164;2023-07-13T07:10:21;6.50;;;2.37;;
68247;SDS011;55064;49.636;12.164;2023-07-13T07:12:47;5.90;;;2.43;;
68247;SDS011;55064;49.636;12.164;2023-07-13T07:15:13;5.32;;;2.10;;
68247;SDS011;55064;49.636;12.164;2023-07-13T07:17:43;6.90;;;2.53;;
68247;SDS011;55064;49.636;12.164;2023-07-13T07:20:08;5.65;;;2.10;;
68247;SDS011;55064;49.636;12.164;2023-07-13T07:22:34;5.18;;;2.20;;
68247;SDS011;55064;49.636;12.164;2023-07-13T07:25:00;5.93;;;2.30;;
68247;SDS011;55064;49.636;12.164;2023-07-13T07:27:25;6.97;;;2.33;;
68247;SDS011;55064;49.636;12.164;2023-07-13T07:29:52;5.40;;;2.33;;
68247;SDS011;55064;49.636;12.164;2023-07-13T07:32:19;5.15;;;2.42;;
68247;SDS011;55064;49.636;12.164;2023-07-13T07:34:45;5.50;;;2.05;;
68247;SDS011;55064;49.636;12.164;2023-07-13T07:37:11;4.93;;;2.00;;
68247;SDS011;55064;49.636;12.164;2023-07-13T07:39:37;5.27;;;2.13;;
68247;SDS011;55064;49.636;12.164;2023-07-13T07:42:03;5.35;;;1.80;;
68247;SDS011;55064;49.636;12.164;2023-07-13T07:44:31;4.70;;;1.87;;
68247;SDS011;55064;49.636;12.164;2023-07-13T07:46:57;6.28;;;2.22;;
68247;SDS011;55064;49.636;12.164;2023-07-13T07:49:24;4.93;;;2.40;;
68247;SDS011;55064;49.636;12.164;2023-07-13T07:51:50;5.40;;;2.20;;
68247;SDS011;55064;49.636;12.164;2023-07-13T07:54:17;6.10;;;2.25;;
68247;SDS011;55064;49.636;12.164;2023-07-13T07:56:43;5.90;;;2.00;;
68247;SDS011;55064;49.636;12.164;2023-07-13T07:59:09;5.40;;;2.00;;
68247;SDS011;55064;49.636;12.164;2023-07-13T08:01:35;5.53;;;2.00;;
68247;SDS011;55064;49.636;12.164;2023-07-13T08:04:03;10.33;;;2.00;;
68247;SDS011;55064;49.636;12.164;2023-07-13T08:06:28;6.30;;;2.03;;
68247;SDS011;55064;49.636;12.164;2023-07-13T08:08:54;6.67;;;2.50;;
68247;SDS011;55064;49.636;12.164;2023-07-13T08:11:20;5.60;;;2.40;;
68247;SDS011;55064;49.636;12.164;2023-07-13T08:13:46;6.32;;;2.17;;
68247;SDS011;55064;49.636;12.164;2023-07-13T08:16:12;4.77;;;2.27;;
68247;SDS011;55064;49.636;12.164;2023-07-13T08:18:37;6.13;;;2.10;;
68247;SDS011;55064;49.636;12.164;2023-07-13T08:21:03;5.37;;;1.73;;
68247;SDS011;55064;49.636;12.164;2023-07-13T08:23:31;4.67;;;2.13;;
68247;SDS011;55064;49.636;12.164;2023-07-13T08:25:57;4.88;;;1.90;;
68247;SDS011;55064;49.636;12.164;2023-07-13T08:28:26;6.28;;;2.50;;
68247;SDS011;55064;49.636;12.164;2023-07-13T08:30:52;5.60;;;2.28;;
68247;SDS011;55064;49.636;12.164;2023-07-13T08:33:21;4.77;;;1.93;;
68247;SDS011;55064;49.636;12.164;2023-07-13T08:35:49;5.72;;;1.98;;
68247;SDS011;55064;49.636;12.164;2023-07-13T08:38:18;5.32;;;1.67;;
68247;SDS011;55064;49.636;12.164;2023-07-13T08:40:43;6.13;;;2.00;;
68247;SDS011;55064;49.636;12.164;2023-07-13T08:43:15;7.47;;;2.15;;
68247;SDS011;55064;49.636;12.164;2023-07-13T08:45:44;4.20;;;1.83;;
68247;SDS011;55064;49.636;12.164;2023-07-13T08:48:21;6.38;;;1.98;;
68247;SDS011;55064;49.636;12.164;2023-07-13T08:50:58;4.67;;;1.50;;
68247;SDS011;55064;49.636;12.164;2023-07-13T08:53:34;4.72;;;1.67;;
68247;SDS011;55064;49.636;12.164;2023-07-13T08:56:02;6.38;;;2.22;;
68247;SDS011;55064;49.636;12.164;2023-07-13T08:58:32;6.15;;;1.90;;
68247;SDS011;55064;49.636;12.164;2023-07-13T09:01:01;5.05;;;1.98;;
68247;SDS011;55064;49.636;12.164;2023-07-13T09:03:41;5.67;;;2.10;;
68247;SDS011;55064;49.636;12.164;2023-07-13T09:06:18;5.47;;;2.20;;
68247;SDS011;55064;49.636;12.164;2023-07-13T09:16:27;4.93;;;1.73;;
68247;SDS011;55064;49.636;12.164;2023-07-13T09:18:53;6.82;;;1.52;;
68247;SDS011;55064;49.636;12.164;2023-07-13T09:21:24;8.20;;;1.90;;
68247;SDS011;55064;49.636;12.164;2023-07-13T09:23:59;6.20;;;1.77;;
68247;SDS011;55064;49.636;12.164;2023-07-13T09:26:44;4.82;;;1.83;;
68247;SDS011;55064;49.636;12.164;2023-07-13T09:29:13;4.97;;;1.80;;
68247;SDS011;55064;49.636;12.164;2023-07-13T09:31:47;5.25;;;1.58;;
68247;SDS011;55064;49.636;12.164;2023-07-13T09:34:18;5.38;;;1.80;;
68247;SDS011;55064;49.636;12.164;2023-07-13T09:36:43;6.40;;;1.93;;
68247;SDS011;55064;49.636;12.164;2023-07-13T09:42:32;4.97;;;1.92;;
68247;SDS011;55064;49.636;12.164;2023-07-13T09:44:59;4.70;;;1.80;;
68247;SDS011;55064;49.636;12.164;2023-07-13T09:47:31;5.80;;;1.70;;
68247;SDS011;55064;49.636;12.164;2023-07-13T09:50:04;6.82;;;1.50;;
68247;SDS011;55064;49.636;12.164;2023-07-13T09:52:42;6.30;;;1.75;;
68247;SDS011;55064;49.636;12.164;2023-07-13T09:55:32;7.38;;;2.10;;
68247;SDS011;55064;49.636;12.164;2023-07-13T10:00:44;5.90;;;1.80;;
68247;SDS011;55064;49.636;12.164;2023-07-13T10:03:21;3.97;;;1.60;;
68247;SDS011;55064;49.636;12.164;2023-07-13T10:05:49;6.32;;;1.90;;
68247;SDS011;55064;49.636;12.164;2023-07-13T10:08:28;5.57;;;1.40;;
68247;SDS011;55064;49.636;12.164;2023-07-13T10:10:59;5.93;;;1.77;;
68247;SDS011;55064;49.636;12.164;2023-07-13T10:15:56;4.25;;;1.80;;
68247;SDS011;55064;49.636;12.164;2023-07-13T10:18:26;5.95;;;2.03;;
68247;SDS011;55064;49.636;12.164;2023-07-13T10:20:54;4.72;;;1.98;;
68247;SDS011;55064;49.636;12.164;2023-07-13T10:23:33;5.85;;;1.95;;
68247;SDS011;55064;49.636;12.164;2023-07-13T10:26:02;4.53;;;1.80;;
68247;SDS011;55064;49.636;12.164;2023-07-13T10:28:30;4.43;;;1.90;;
68247;SDS011;55064;49.636;12.164;2023-07-13T10:31:00;5.07;;;1.90;;
68247;SDS011;55064;49.636;12.164;2023-07-13T10:33:27;4.28;;;1.60;;
68247;SDS011;55064;49.636;12.164;2023-07-13T10:36:11;5.38;;;2.00;;
68247;SDS011;55064;49.636;12.164;2023-07-13T10:38:43;7.63;;;2.10;;
68247;SDS011;55064;49.636;12.164;2023-07-13T10:41:17;5.55;;;1.77;;
68247;SDS011;55064;49.636;12.164;2023-07-13T10:43:46;4.78;;;1.70;;
68247;SDS011;55064;49.636;12.164;2023-07-13T10:46:17;6.13;;;1.83;;
68247;SDS011;55064;49.636;12.164;2023-07-13T10:48:47;6.07;;;1.95;;
68247;SDS011;55064;49.636;12.164;2023-07-13T10:51:17;5.23;;;1.70;;
68247;SDS011;55064;49.636;12.164;2023-07-13T10:53:46;5.10;;;1.75;;
68247;SDS011;55064;49.636;12.164;2023-07-13T10:59:01;4.93;;;1.70;;
68247;SDS011;55064;49.636;12.164;2023-07-13T11:01:46;5.38;;;1.85;;
68247;SDS011;55064;49.636;12.164;2023-07-13T11:04:18;5.30;;;1.90;;
68247;SDS011;55064;49.636;12.164;2023-07-13T11:06:45;5.35;;;1.95;;
68247;SDS011;55064;49.636;12.164;2023-07-13T11:09:32;5.15;;;2.28;;
68247;SDS011;55064;49.636;12.164;2023-07-13T11:12:26;4.47;;;1.92;;
68247;SDS011;55064;49.636;12.164;2023-07-13T11:25:42;4.28;;;1.52;;
68247;SDS011;55064;49.636;12.164;2023-07-13T11:33:47;4.30;;;1.40;;
68247;SDS011;55064;49.636;12.164;2023-07-13T11:38:48;4.50;;;1.70;;
68247;SDS011;55064;49.636;12.164;2023-07-13T11:41:35;6.43;;;1.77;;
68247;SDS011;55064;49.636;12.164;2023-07-13T11:44:08;4.60;;;1.43;;
68247;SDS011;55064;49.636;12.164;2023-07-13T11:46:38;4.60;;;1.60;;
68247;SDS011;55064;49.636;12.164;2023-07-13T11:49:06;4.23;;;1.70;;
68247;SDS011;55064;49.636;12.164;2023-07-13T11:51:33;6.35;;;1.60;;
68247;SDS011;55064;49.636;12.164;2023-07-13T11:54:04;4.50;;;1.42;;
68247;SDS011;55064;49.636;12.164;2023-07-13T11:56:38;3.83;;;1.40;;
68247;SDS011;55064;49.636;12.164;2023-07-13T11:59:05;4.07;;;1.60;;
68247;SDS011;55064;49.636;12.164;2023-07-13T12:01:33;4.22;;;1.70;;
68247;SDS011;55064;49.636;12.164;2023-07-13T12:04:03;4.25;;;1.60;;
68247;SDS011;55064;49.636;12.164;2023-07-13T12:06:32;4.47;;;1.80;;
68247;SDS011;55064;49.636;12.164;2023-07-13T12:09:10;4.17;;;1.53;;
68247;SDS011;55064;49.636;12.164;2023-07-13T12:11:42;5.53;;;1.65;;
68247;SDS011;55064;49.636;12.164;2023-07-13T12:14:14;4.93;;;1.45;;
68247;SDS011;55064;49.636;12.164;2023-07-13T12:16:41;5.15;;;1.50;;
68247;SDS011;55064;49.636;12.164;2023-07-13T12:19:14;5.35;;;1.60;;
68247;SDS011;55064;49.636;12.164;2023-07-13T12:21:56;5.80;;;1.50;;
68247;SDS011;55064;49.636;12.164;2023-07-13T12:24:22;3.40;;;1.38;;
68247;SDS011;55064;49.636;12.164;2023-07-13T12:26:52;3.67;;;1.40;;
68247;SDS011;55064;49.636;12.164;2023-07-13T12:29:19;4.50;;;1.52;;
68247;SDS011;55064;49.636;12.164;2023-07-13T12:31:47;4.38;;;1.70;;
68247;SDS011;55064;49.636;12.164;2023-07-13T12:34:18;3.80;;;1.47;;
68247;SDS011;55064;49.636;12.164;2023-07-13T12:36:52;4.35;;;1.30;;
68247;SDS011;55064;49.636;12.164;2023-07-13T12:39:35;4.25;;;1.33;;
68247;SDS011;55064;49.636;12.164;2023-07-13T12:42:19;5.63;;;1.40;;
68247;SDS011;55064;49.636;12.164;2023-07-13T12:44:49;4.55;;;1.70;;
68247;SDS011;55064;49.636;12.164;2023-07-13T12:47:19;5.03;;;1.40;;
68247;SDS011;55064;49.636;12.164;2023-07-13T12:49:49;5.00;;;1.40;;
68247;SDS011;55064;49.636;12.164;2023-07-13T12:52:28;5.45;;;1.60;;
68247;SDS011;55064;49.636;12.164;2023-07-13T12:57:31;4.93;;;1.55;;
68247;SDS011;55064;49.636;12.164;2023-07-13T12:59:57;4.83;;;1.40;;
68247;SDS011;55064;49.636;12.164;2023-07-13T13:04:56;3.80;;;1.40;;
68247;SDS011;55064;49.636;12.164;2023-07-13T13:07:22;4.05;;;1.33;;
68247;SDS011;55064;49.636;12.164;2023-07-13T13:09:49;4.80;;;1.70;;
68247;SDS011;55064;49.636;12.164;2023-07-13T13:12:14;4.87;;;1.40;;
68247;SDS011;55064;49.636;12.164;2023-07-13T13:14:42;4.15;;;1.45;;
68247;SDS011;55064;49.636;12.164;2023-07-13T13:17:20;3.88;;;1.40;;
68247;SDS011;55064;49.636;12.164;2023-07-13T13:19:56;5.57;;;1.50;;
68247;SDS011;55064;49.636;12.164;2023-07-13T13:22:26;4.37;;;1.50;;
68247;SDS011;55064;49.636;12.164;2023-07-13T13:24:51;6.82;;;1.70;;
68247;SDS011;55064;49.636;12.164;2023-07-13T13:27:21;4.18;;;1.67;;
68247;SDS011;55064;49.636;12.164;2023-07-13T13:29:48;4.03;;;1.63;;
68247;SDS011;55064;49.636;12.164;2023-07-13T13:32:16;4.78;;;1.83;;
68247;SDS011;55064;49.636;12.164;2023-07-13T13:34:42;6.47;;;1.43;;
68247;SDS011;55064;49.636;12.164;2023-07-13T13:37:22;4.43;;;1.43;;
68247;SDS011;55064;49.636;12.164;2023-07-13T13:39:48;5.63;;;1.65;;
68247;SDS011;55064;49.636;12.164;2023-07-13T13:42:14;4.88;;;1.70;;
68247;SDS011;55064;49.636;12.164;2023-07-13T13:44:42;7.20;;;1.80;;
68247;SDS011;55064;49.636;12.164;2023-07-13T13:47:19;4.63;;;1.43;;
68247;SDS011;55064;49.636;12.164;2023-07-13T13:49:52;5.35;;;1.50;;
68247;SDS011;55064;49.636;12.164;2023-07-13T13:52:17;5.97;;;1.53;;
68247;SDS011;55064;49.636;12.164;2023-07-13T13:54:43;4.30;;;1.60;;
68247;SDS011;55064;49.636;12.164;2023-07-13T13:57:09;5.15;;;1.50;;
68247;SDS011;55064;49.636;12.164;2023-07-13T13:59:39;4.93;;;1.52;;
68247;SDS011;55064;49.636;12.164;2023-07-13T14:02:14;5.57;;;1.48;;
68247;SDS011;55064;49.636;12.164;2023-07-13T14:04:55;3.72;;;1.52;;
68247;SDS011;55064;49.636;12.164;2023-07-13T14:07:25;4.83;;;1.77;;
68247;SDS011;55064;49.636;12.164;2023-07-13T14:09:52;5.47;;;1.50;;
68247;SDS011;55064;49.636;12.164;2023-07-13T14:12:21;5.53;;;1.40;;
68247;SDS011;55064;49.636;12.164;2023-07-13T14:14:46;5.55;;;1.60;;
68247;SDS011;55064;49.636;12.164;2023-07-13T14:17:22;4.57;;;1.37;;
68247;SDS011;55064;49.636;12.164;2023-07-13T14:19:50;5.22;;;1.70;;
68247;SDS011;55064;49.636;12.164;2023-07-13T14:22:17;6.95;;;1.80;;
68247;SDS011;55064;49.636;12.164;2023-07-13T14:24:43;4.97;;;1.70;;
68247;SDS011;55064;49.636;12.164;2023-07-13T14:27:12;5.28;;;1.70;;
68247;SDS011;55064;49.636;12.164;2023-07-13T14:29:39;4.50;;;1.77;;
68247;SDS011;55064;49.636;12.164;2023-07-13T14:32:08;5.15;;;1.42;;
68247;SDS011;55064;49.636;12.164;2023-07-13T14:34:36;7.27;;;1.80;;
68247;SDS011;55064;49.636;12.164;2023-07-13T14:37:01;4.45;;;1.60;;
68247;SDS011;55064;49.636;12.164;2023-07-13T14:39:29;5.47;;;1.60;;
68247;SDS011;55064;49.636;12.164;2023-07-13T14:41:55;4.78;;;1.70;;
68247;SDS011;55064;49.636;12.164;2023-07-13T14:44:25;6.53;;;1.52;;
68247;SDS011;55064;49.636;12.164;2023-07-13T14:46:56;4.07;;;1.50;;
68247;SDS011;55064;49.636;12.164;2023-07-13T14:51:59;5.37;;;2.20;;
68247;SDS011;55064;49.636;12.164;2023-07-13T14:54:28;4.78;;;1.77;;
68247;SDS011;55064;49.636;12.164;2023-07-13T14:56:55;4.87;;;1.50;;
68247;SDS011;55064;49.636;12.164;2023-07-13T14:59:22;5.10;;;1.73;;
68247;SDS011;55064;49.636;12.164;2023-07-13T15:01:49;6.00;;;1.85;;
68247;SDS011;55064;49.636;12.164;2023-07-13T15:04:16;5.28;;;1.80;;
68247;SDS011;55064;49.636;12.164;2023-07-13T15:09:34;4.80;;;1.50;;
68247;SDS011;55064;49.636;12.164;2023-07-13T15:15:11;5.50;;;1.73;;
68247;SDS011;55064;49.636;12.164;2023-07-13T15:17:46;7.40;;;1.83;;
68247;SDS011;55064;49.636;12.164;2023-07-13T15:20:21;4.25;;;1.70;;
68247;SDS011;55064;49.636;12.164;2023-07-13T15:22:53;4.47;;;1.70;;
68247;SDS011;55064;49.636;12.164;2023-07-13T15:25:20;4.40;;;1.60;;
68247;SDS011;55064;49.636;12.164;2023-07-13T15:27:50;5.90;;;1.58;;
68247;SDS011;55064;49.636;12.164;2023-07-13T15:38:54;4.97;;;1.80;;
68247;SDS011;55064;49.636;12.164;2023-07-13T15:41:26;9.00;;;1.60;;
68247;SDS011;55064;49.636;12.164;2023-07-13T15:47:13;6.28;;;1.88;;
68247;SDS011;55064;49.636;12.164;2023-07-13T15:49:49;5.53;;;1.92;;
68247;SDS011;55064;49.636;12.164;2023-07-13T15:52:20;5.03;;;1.80;;
68247;SDS011;55064;49.636;12.164;2023-07-13T15:54:54;5.93;;;1.75;;
68247;SDS011;55064;49.636;12.164;2023-07-13T15:57:20;6.13;;;1.70;;